Kingsville

*Note: All times are displayed in the local standard time of the station location.
**Rain - Equipment is designed to accurately record liquid precipitation; under conditions when precipitation is not in liquid form, the data displayed may not properly reflect rainfall values.

Date Max Temp
(°C)
Min Temp
(°C)
Avg Temp
(°C)
Rain (mm) Avg RH (%)
Tue, Jan 15, 2019 -2.7 -4.3 -3.4 0.0 85.2
Mon, Jan 14, 2019 -1.5 -7.2 -4.4 0.0 80.6
Sun, Jan 13, 2019 -0.6 -8.2 -4.6 0.0 75.2
Sat, Jan 12, 2019 -0.9 -6.7 -2.9 0.0 76.0
Fri, Jan 11, 2019 -2.7 -9.3 -5.8 0.0 71.6
Thu, Jan 10, 2019 -3.2 -8.0 -5.5 0.0 68.7
Wed, Jan 09, 2019 2.0 -5.1 -3.0 0.0 71.9
DateTime Avg Temp (°C) Rain (mm) RH (%)
Wed, Jan 16, 2019 06:00 -1.6 0.0 92.1
Wed, Jan 16, 2019 05:00 -1.9 0.0 91.4
Wed, Jan 16, 2019 04:00 -2.3 0.0 93.7
Wed, Jan 16, 2019 03:00 -2.8 0.0 89.8
Wed, Jan 16, 2019 02:00 -2.8 0.0 86.8
Wed, Jan 16, 2019 01:00 -2.7 0.0 87.0
Wed, Jan 16, 2019 00:00 -2.8 0.0 86.6
Tue, Jan 15, 2019 23:00 -3.0 0.0 85.6
Tue, Jan 15, 2019 22:00 -3.1 0.0 85.5
Tue, Jan 15, 2019 21:00 -3.2 0.0 84.9
Tue, Jan 15, 2019 20:00 -3.2 0.0 86.7
Tue, Jan 15, 2019 19:00 -3.1 0.0 83.9
Tue, Jan 15, 2019 18:00 -2.8 0.0 80.6
Tue, Jan 15, 2019 17:00 -2.8 0.0 85.0
Tue, Jan 15, 2019 16:00 -3.1 0.0 85.6
Tue, Jan 15, 2019 15:00 -3.6 0.0 87.4
Tue, Jan 15, 2019 14:00 -4.1 0.0 89.0
Tue, Jan 15, 2019 13:00 -4.2 0.0 91.5
Tue, Jan 15, 2019 12:00 -4.1 0.0 91.6
Tue, Jan 15, 2019 11:00 -3.8 0.0 90.2
Tue, Jan 15, 2019 10:00 -3.6 0.0 87.3
Tue, Jan 15, 2019 09:00 -3.5 0.0 88.5
Tue, Jan 15, 2019 08:00 -3.2 0.0 88.5
Tue, Jan 15, 2019 07:00 -2.9 0.0 86.4
Tue, Jan 15, 2019 06:00 -3.1 0.0 78.2
Tue, Jan 15, 2019 05:00 -3.4 0.0 79.6
Tue, Jan 15, 2019 04:00 -3.5 0.0 81.2
Tue, Jan 15, 2019 03:00 -3.6 0.0 80.4
Tue, Jan 15, 2019 02:00 -3.5 0.0 79.7
Tue, Jan 15, 2019 01:00 -3.8 0.0 80.8
Tue, Jan 15, 2019 00:00 -4.5 0.0 82.6
Mon, Jan 14, 2019 23:00 -4.3 0.0 82.5
Mon, Jan 14, 2019 22:00 -4.0 0.0 83.8
Mon, Jan 14, 2019 21:00 -3.6 0.0 84.2
Mon, Jan 14, 2019 20:00 -3.4 0.0 81.8
Mon, Jan 14, 2019 19:00 -3.5 0.0 79.6
Mon, Jan 14, 2019 18:00 -3.6 0.0 78.5
Mon, Jan 14, 2019 17:00 -2.9 0.0 74.4
Mon, Jan 14, 2019 16:00 -2.3 0.0 71.8
Mon, Jan 14, 2019 15:00 -2.1 0.0 71.6
Mon, Jan 14, 2019 14:00 -1.6 0.0 66.9
Mon, Jan 14, 2019 13:00 -2.0 0.0 65.8
Mon, Jan 14, 2019 12:00 -2.9 0.0 69.1
Mon, Jan 14, 2019 11:00 -3.8 0.0 74.7
Mon, Jan 14, 2019 10:00 -5.3 0.0 81.4
Mon, Jan 14, 2019 09:00 -6.5 0.0 89.1
Mon, Jan 14, 2019 08:00 -6.2 0.0 86.8
Mon, Jan 14, 2019 07:00 -5.8 0.0 85.5


asterix Register now to access more data! asterix